sensor_id;sensor_type;location;lat;lon;timestamp;pressure;altitude;pressure_sealevel;temperature;humidity
56944;BME280;42848;42.524;12.052;2024-03-25T00:02:13;95843.28;;;9.81;100.00
56944;BME280;42848;42.524;12.052;2024-03-25T00:04:39;95851.75;;;9.79;100.00
56944;BME280;42848;42.524;12.052;2024-03-25T00:07:05;95856.06;;;9.59;100.00
56944;BME280;42848;42.524;12.052;2024-03-25T00:09:30;95851.00;;;9.58;100.00
56944;BME280;42848;42.524;12.052;2024-03-25T00:11:56;95852.84;;;9.66;100.00
56944;BME280;42848;42.524;12.052;2024-03-25T00:14:22;95847.16;;;9.59;100.00
56944;BME280;42848;42.524;12.052;2024-03-25T00:16:49;95848.19;;;9.54;100.00
56944;BME280;42848;42.524;12.052;2024-03-25T00:19:15;95836.56;;;9.66;100.00
56944;BME280;42848;42.524;12.052;2024-03-25T00:21:41;95835.16;;;9.48;100.00
56944;BME280;42848;42.524;12.052;2024-03-25T00:24:08;95832.47;;;9.60;100.00
56944;BME280;42848;42.524;12.052;2024-03-25T00:26:34;95834.38;;;9.47;100.00
56944;BME280;42848;42.524;12.052;2024-03-25T00:29:00;95832.00;;;9.46;100.00
56944;BME280;42848;42.524;12.052;2024-03-25T00:31:25;95835.78;;;9.32;100.00
56944;BME280;42848;42.524;12.052;2024-03-25T00:33:51;95830.84;;;9.34;100.00
56944;BME280;42848;42.524;12.052;2024-03-25T00:36:17;95825.13;;;9.15;100.00
56944;BME280;42848;42.524;12.052;2024-03-25T00:38:43;95836.09;;;9.52;100.00
56944;BME280;42848;42.524;12.052;2024-03-25T00:41:09;95838.63;;;9.36;100.00
56944;BME280;42848;42.524;12.052;2024-03-25T00:43:35;95827.41;;;9.58;100.00
56944;BME280;42848;42.524;12.052;2024-03-25T00:46:00;95839.38;;;9.57;100.00
56944;BME280;42848;42.524;12.052;2024-03-25T00:48:26;95831.91;;;9.21;100.00
56944;BME280;42848;42.524;12.052;2024-03-25T00:50:52;95840.91;;;9.34;100.00
56944;BME280;42848;42.524;12.052;2024-03-25T00:53:17;95835.75;;;9.20;100.00
56944;BME280;42848;42.524;12.052;2024-03-25T00:55:44;95836.16;;;9.10;100.00
56944;BME280;42848;42.524;12.052;2024-03-25T00:58:09;95834.34;;;9.14;100.00
56944;BME280;42848;42.524;12.052;2024-03-25T01:00:35;95834.69;;;9.12;100.00
56944;BME280;42848;42.524;12.052;2024-03-25T01:03:01;95829.75;;;8.94;100.00
56944;BME280;42848;42.524;12.052;2024-03-25T01:05:27;95835.78;;;8.78;100.00
56944;BME280;42848;42.524;12.052;2024-03-25T01:07:53;95818.94;;;8.52;100.00
56944;BME280;42848;42.524;12.052;2024-03-25T01:10:19;95826.31;;;8.43;100.00
56944;BME280;42848;42.524;12.052;2024-03-25T01:12:44;95823.47;;;8.31;100.00
56944;BME280;42848;42.524;12.052;2024-03-25T01:15:11;95831.28;;;8.32;100.00
56944;BME280;42848;42.524;12.052;2024-03-25T01:17:37;95833.19;;;8.61;100.00
56944;BME280;42848;42.524;12.052;2024-03-25T01:20:03;95836.00;;;8.44;100.00
56944;BME280;42848;42.524;12.052;2024-03-25T01:22:34;95835.69;;;8.66;100.00
56944;BME280;42848;42.524;12.052;2024-03-25T01:25:00;95842.63;;;8.55;100.00
56944;BME280;42848;42.524;12.052;2024-03-25T01:27:25;95841.94;;;8.58;100.00
56944;BME280;42848;42.524;12.052;2024-03-25T01:29:51;95830.81;;;8.60;100.00
56944;BME280;42848;42.524;12.052;2024-03-25T01:32:17;95836.28;;;8.51;100.00
56944;BME280;42848;42.524;12.052;2024-03-25T01:34:43;95830.22;;;8.54;100.00
56944;BME280;42848;42.524;12.052;2024-03-25T01:37:08;95823.50;;;8.60;100.00
56944;BME280;42848;42.524;12.052;2024-03-25T01:39:34;95820.38;;;8.49;100.00
56944;BME280;42848;42.524;12.052;2024-03-25T01:42:00;95818.22;;;8.43;100.00
56944;BME280;42848;42.524;12.052;2024-03-25T01:44:25;95812.13;;;8.46;100.00
56944;BME280;42848;42.524;12.052;2024-03-25T01:46:51;95804.84;;;8.38;100.00
56944;BME280;42848;42.524;12.052;2024-03-25T01:49:19;95801.38;;;8.28;100.00
56944;BME280;42848;42.524;12.052;2024-03-25T01:51:46;95801.38;;;8.37;100.00
56944;BME280;42848;42.524;12.052;2024-03-25T01:54:11;95805.28;;;8.69;100.00
56944;BME280;42848;42.524;12.052;2024-03-25T01:56:42;95811.22;;;8.63;100.00
56944;BME280;42848;42.524;12.052;2024-03-25T01:59:08;95803.28;;;8.37;100.00
56944;BME280;42848;42.524;12.052;2024-03-25T02:01:34;95789.00;;;8.27;100.00
56944;BME280;42848;42.524;12.052;2024-03-25T02:04:00;95790.28;;;8.21;100.00
56944;BME280;42848;42.524;12.052;2024-03-25T02:06:27;95787.41;;;8.26;100.00
56944;BME280;42848;42.524;12.052;2024-03-25T02:08:55;95790.81;;;8.15;100.00
56944;BME280;42848;42.524;12.052;2024-03-25T02:11:22;95805.09;;;8.24;100.00
56944;BME280;42848;42.524;12.052;2024-03-25T02:13:50;95808.22;;;8.05;100.00
56944;BME280;42848;42.524;12.052;2024-03-25T02:16:16;95808.25;;;8.26;100.00
56944;BME280;42848;42.524;12.052;2024-03-25T02:18:42;95814.16;;;8.19;100.00
56944;BME280;42848;42.524;12.052;2024-03-25T02:21:08;95817.06;;;8.14;100.00
56944;BME280;42848;42.524;12.052;2024-03-25T02:23:34;95816.88;;;8.19;100.00
56944;BME280;42848;42.524;12.052;2024-03-25T02:26:01;95812.22;;;7.99;100.00
56944;BME280;42848;42.524;12.052;2024-03-25T02:28:26;95818.16;;;8.13;100.00
56944;BME280;42848;42.524;12.052;2024-03-25T02:30:52;95822.19;;;8.07;100.00
56944;BME280;42848;42.524;12.052;2024-03-25T02:33:18;95826.75;;;8.15;100.00
56944;BME280;42848;42.524;12.052;2024-03-25T02:35:43;95825.34;;;8.09;100.00
56944;BME280;42848;42.524;12.052;2024-03-25T02:38:10;95827.72;;;8.11;100.00
56944;BME280;42848;42.524;12.052;2024-03-25T02:40:37;95827.75;;;8.02;100.00
56944;BME280;42848;42.524;12.052;2024-03-25T02:43:04;95821.22;;;8.03;100.00
56944;BME280;42848;42.524;12.052;2024-03-25T02:45:29;95822.47;;;8.14;100.00
56944;BME280;42848;42.524;12.052;2024-03-25T02:47:55;95831.78;;;7.96;100.00
56944;BME280;42848;42.524;12.052;2024-03-25T02:50:21;95825.69;;;8.08;100.00
56944;BME280;42848;42.524;12.052;2024-03-25T02:52:46;95831.91;;;7.99;100.00
56944;BME280;42848;42.524;12.052;2024-03-25T02:55:12;95830.78;;;8.30;100.00
56944;BME280;42848;42.524;12.052;2024-03-25T02:57:38;95837.75;;;8.10;100.00
56944;BME280;42848;42.524;12.052;2024-03-25T03:00:04;95830.25;;;8.16;100.00
56944;BME280;42848;42.524;12.052;2024-03-25T03:02:30;95827.00;;;7.93;100.00
56944;BME280;42848;42.524;12.052;2024-03-25T03:04:55;95832.69;;;8.00;100.00
56944;BME280;42848;42.524;12.052;2024-03-25T03:07:21;95827.03;;;8.22;100.00
56944;BME280;42848;42.524;12.052;2024-03-25T03:09:47;95827.97;;;8.26;100.00
56944;BME280;42848;42.524;12.052;2024-03-25T03:12:12;95827.06;;;8.52;100.00
56944;BME280;42848;42.524;12.052;2024-03-25T03:14:38;95831.84;;;8.17;100.00
56944;BME280;42848;42.524;12.052;2024-03-25T03:17:03;95823.50;;;8.60;100.00
56944;BME280;42848;42.524;12.052;2024-03-25T03:19:31;95833.94;;;8.70;100.00
56944;BME280;42848;42.524;12.052;2024-03-25T03:21:56;95836.16;;;8.09;100.00
56944;BME280;42848;42.524;12.052;2024-03-25T03:24:23;95837.66;;;8.27;100.00
56944;BME280;42848;42.524;12.052;2024-03-25T03:26:49;95834.22;;;8.18;100.00
56944;BME280;42848;42.524;12.052;2024-03-25T03:29:15;95832.50;;;8.14;100.00
56944;BME280;42848;42.524;12.052;2024-03-25T03:31:41;95825.06;;;8.02;100.00
56944;BME280;42848;42.524;12.052;2024-03-25T03:34:07;95831.63;;;7.92;100.00
56944;BME280;42848;42.524;12.052;2024-03-25T03:36:32;95827.88;;;7.76;100.00
56944;BME280;42848;42.524;12.052;2024-03-25T03:38:58;95831.25;;;8.03;100.00
56944;BME280;42848;42.524;12.052;2024-03-25T03:41:24;95826.22;;;7.92;100.00
56944;BME280;42848;42.524;12.052;2024-03-25T03:43:49;95826.41;;;7.87;100.00
56944;BME280;42848;42.524;12.052;2024-03-25T03:46:15;95824.53;;;7.79;100.00
56944;BME280;42848;42.524;12.052;2024-03-25T03:48:40;95812.09;;;7.87;100.00
56944;BME280;42848;42.524;12.052;2024-03-25T03:51:07;95821.97;;;7.83;100.00
56944;BME280;42848;42.524;12.052;2024-03-25T03:53:34;95820.31;;;7.99;100.00
56944;BME280;42848;42.524;12.052;2024-03-25T03:56:02;95818.44;;;7.91;100.00
56944;BME280;42848;42.524;12.052;2024-03-25T03:58:28;95818.44;;;7.91;100.00
56944;BME280;42848;42.524;12.052;2024-03-25T04:00:54;95822.88;;;7.95;100.00
56944;BME280;42848;42.524;12.052;2024-03-25T04:03:21;95828.09;;;8.01;100.00
56944;BME280;42848;42.524;12.052;2024-03-25T04:05:47;95825.84;;;8.03;100.00
56944;BME280;42848;42.524;12.052;2024-03-25T04:08:12;95828.50;;;8.11;100.00
56944;BME280;42848;42.524;12.052;2024-03-25T04:10:39;95826.00;;;8.06;100.00
56944;BME280;42848;42.524;12.052;2024-03-25T04:13:07;95836.16;;;8.09;100.00
56944;BME280;42848;42.524;12.052;2024-03-25T04:15:38;95834.28;;;8.01;100.00
56944;BME280;42848;42.524;12.052;2024-03-25T04:18:04;95828.22;;;8.04;100.00
56944;BME280;42848;42.524;12.052;2024-03-25T04:20:40;95830.00;;;8.00;100.00
56944;BME280;42848;42.524;12.052;2024-03-25T04:23:07;95834.13;;;8.06;100.00
56944;BME280;42848;42.524;12.052;2024-03-25T04:25:34;95840.66;;;8.05;100.00
56944;BME280;42848;42.524;12.052;2024-03-25T04:28:00;95849.84;;;8.04;100.00
56944;BME280;42848;42.524;12.052;2024-03-25T04:30:25;95857.84;;;7.92;100.00
56944;BME280;42848;42.524;12.052;2024-03-25T04:32:51;95860.19;;;8.02;100.00
56944;BME280;42848;42.524;12.052;2024-03-25T04:35:17;95862.91;;;8.02;100.00
56944;BME280;42848;42.524;12.052;2024-03-25T04:37:43;95869.75;;;8.38;100.00
56944;BME280;42848;42.524;12.052;2024-03-25T04:40:09;95876.59;;;8.44;100.00
56944;BME280;42848;42.524;12.052;2024-03-25T04:42:35;95877.09;;;8.28;100.00
56944;BME280;42848;42.524;12.052;2024-03-25T04:45:01;95878.03;;;8.33;100.00
56944;BME280;42848;42.524;12.052;2024-03-25T04:47:27;95876.16;;;8.24;100.00
56944;BME280;42848;42.524;12.052;2024-03-25T04:49:53;95881.41;;;8.21;100.00
56944;BME280;42848;42.524;12.052;2024-03-25T04:52:18;95888.94;;;8.15;100.00
56944;BME280;42848;42.524;12.052;2024-03-25T04:54:49;95883.78;;;8.22;100.00
56944;BME280;42848;42.524;12.052;2024-03-25T04:57:15;95880.25;;;8.31;100.00
56944;BME280;42848;42.524;12.052;2024-03-25T04:59:40;95883.44;;;8.33;100.00
56944;BME280;42848;42.524;12.052;2024-03-25T05:02:06;95879.63;;;8.34;100.00
56944;BME280;42848;42.524;12.052;2024-03-25T05:04:32;95880.25;;;8.39;100.00
56944;BME280;42848;42.524;12.052;2024-03-25T05:06:57;95884.06;;;8.38;100.00
56944;BME280;42848;42.524;12.052;2024-03-25T05:09:23;95881.38;;;8.30;100.00
56944;BME280;42848;42.524;12.052;2024-03-25T05:11:49;95888.28;;;8.18;100.00
56944;BME280;42848;42.524;12.052;2024-03-25T05:14:14;95881.44;;;8.12;100.00
56944;BME280;42848;42.524;12.052;2024-03-25T05:16:40;95894.56;;;8.31;100.00
56944;BME280;42848;42.524;12.052;2024-03-25T05:19:06;95894.97;;;8.12;100.00
56944;BME280;42848;42.524;12.052;2024-03-25T05:21:32;95898.22;;;8.44;100.00
56944;BME280;42848;42.524;12.052;2024-03-25T05:23:58;95910.22;;;8.17;100.00
56944;BME280;42848;42.524;12.052;2024-03-25T05:26:24;95916.53;;;8.30;100.00
56944;BME280;42848;42.524;12.052;2024-03-25T05:28:56;95921.31;;;8.33;100.00
56944;BME280;42848;42.524;12.052;2024-03-25T05:31:22;95928.13;;;8.30;100.00
56944;BME280;42848;42.524;12.052;2024-03-25T05:33:49;95931.50;;;8.36;100.00
56944;BME280;42848;42.524;12.052;2024-03-25T05:36:15;95930.06;;;8.30;100.00
56944;BME280;42848;42.524;12.052;2024-03-25T05:38:40;95926.88;;;8.36;100.00
56944;BME280;42848;42.524;12.052;2024-03-25T05:41:09;95921.91;;;8.47;100.00
56944;BME280;42848;42.524;12.052;2024-03-25T05:43:35;95934.03;;;8.32;100.00
56944;BME280;42848;42.524;12.052;2024-03-25T05:46:01;95940.63;;;8.14;100.00
56944;BME280;42848;42.524;12.052;2024-03-25T05:48:27;95933.09;;;8.37;100.00
56944;BME280;42848;42.524;12.052;2024-03-25T05:51:06;95938.34;;;8.24;100.00
56944;BME280;42848;42.524;12.052;2024-03-25T05:53:35;95935.78;;;8.37;100.00
56944;BME280;42848;42.524;12.052;2024-03-25T05:56:01;95936.91;;;8.36;100.00
56944;BME280;42848;42.524;12.052;2024-03-25T05:58:27;95934.00;;;8.41;100.00
56944;BME280;42848;42.524;12.052;2024-03-25T06:00:53;95939.41;;;8.41;100.00
56944;BME280;42848;42.524;12.052;2024-03-25T06:03:19;95938.31;;;8.42;100.00
56944;BME280;42848;42.524;12.052;2024-03-25T06:05:46;95936.53;;;8.46;100.00
56944;BME280;42848;42.524;12.052;2024-03-25T06:08:12;95944.91;;;8.62;100.00
56944;BME280;42848;42.524;12.052;2024-03-25T06:10:50;95946.66;;;8.58;100.00
56944;BME280;42848;42.524;12.052;2024-03-25T06:13:17;95953.03;;;8.62;100.00
56944;BME280;42848;42.524;12.052;2024-03-25T06:15:42;95953.63;;;8.67;100.00
56944;BME280;42848;42.524;12.052;2024-03-25T06:18:08;95958.91;;;8.64;100.00
56944;BME280;42848;42.524;12.052;2024-03-25T06:20:34;95953.19;;;8.86;100.00
56944;BME280;42848;42.524;12.052;2024-03-25T06:23:00;95960.69;;;8.89;100.00
56944;BME280;42848;42.524;12.052;2024-03-25T06:25:26;95968.97;;;8.84;100.00
56944;BME280;42848;42.524;12.052;2024-03-25T06:27:54;95969.59;;;8.90;100.00
56944;BME280;42848;42.524;12.052;2024-03-25T06:30:20;95970.97;;;8.96;100.00
56944;BME280;42848;42.524;12.052;2024-03-25T06:33:04;95959.78;;;9.06;100.00
56944;BME280;42848;42.524;12.052;2024-03-25T06:35:48;95954.56;;;9.01;100.00
56944;BME280;42848;42.524;12.052;2024-03-25T06:38:14;95965.28;;;9.18;100.00
56944;BME280;42848;42.524;12.052;2024-03-25T06:40:40;95965.66;;;9.08;100.00
56944;BME280;42848;42.524;12.052;2024-03-25T06:43:05;95969.63;;;9.10;100.00
56944;BME280;42848;42.524;12.052;2024-03-25T06:45:31;95977.97;;;9.26;100.00
56944;BME280;42848;42.524;12.052;2024-03-25T06:47:57;95971.03;;;9.37;100.00
56944;BME280;42848;42.524;12.052;2024-03-25T06:50:23;95974.84;;;9.36;100.00
56944;BME280;42848;42.524;12.052;2024-03-25T06:52:50;95971.19;;;9.32;100.00
56944;BME280;42848;42.524;12.052;2024-03-25T06:55:15;95973.28;;;9.35;100.00
56944;BME280;42848;42.524;12.052;2024-03-25T06:57:41;95964.69;;;9.33;100.00
56944;BME280;42848;42.524;12.052;2024-03-25T07:00:07;95967.59;;;9.28;100.00
56944;BME280;42848;42.524;12.052;2024-03-25T07:02:39;95970.09;;;9.33;100.00
56944;BME280;42848;42.524;12.052;2024-03-25T07:05:06;95966.72;;;9.36;100.00
56944;BME280;42848;42.524;12.052;2024-03-25T07:07:32;95968.78;;;9.39;100.00
56944;BME280;42848;42.524;12.052;2024-03-25T07:09:57;95969.56;;;9.61;100.00
56944;BME280;42848;42.524;12.052;2024-03-25T07:12:23;95971.78;;;9.59;100.00
56944;BME280;42848;42.524;12.052;2024-03-25T07:14:49;95978.41;;;9.70;100.00
56944;BME280;42848;42.524;12.052;2024-03-25T07:17:15;95978.41;;;9.70;100.00
56944;BME280;42848;42.524;12.052;2024-03-25T07:19:40;95975.50;;;9.75;100.00
56944;BME280;42848;42.524;12.052;2024-03-25T07:22:06;95984.47;;;9.88;100.00
56944;BME280;42848;42.524;12.052;2024-03-25T07:24:32;95987.47;;;10.07;100.00
56944;BME280;42848;42.524;12.052;2024-03-25T07:26:58;95986.59;;;10.15;100.00
56944;BME280;42848;42.524;12.052;2024-03-25T07:29:23;95999.50;;;10.18;100.00
56944;BME280;42848;42.524;12.052;2024-03-25T07:31:49;96002.75;;;10.12;100.00
56944;BME280;42848;42.524;12.052;2024-03-25T07:34:15;96002.28;;;10.10;100.00
56944;BME280;42848;42.524;12.052;2024-03-25T07:36:40;95986.28;;;10.17;100.00
56944;BME280;42848;42.524;12.052;2024-03-25T07:39:06;95980.47;;;10.06;99.98
56944;BME280;42848;42.524;12.052;2024-03-25T07:41:33;95981.28;;;10.07;100.00
56944;BME280;42848;42.524;12.052;2024-03-25T07:43:58;95984.28;;;10.26;100.00
56944;BME280;42848;42.524;12.052;2024-03-25T07:46:24;95978.13;;;10.17;99.29
56944;BME280;42848;42.524;12.052;2024-03-25T07:48:50;95984.06;;;10.31;99.74
56944;BME280;42848;42.524;12.052;2024-03-25T07:51:15;95984.09;;;10.43;100.00
56944;BME280;42848;42.524;12.052;2024-03-25T07:53:41;95977.88;;;10.43;99.23
56944;BME280;42848;42.524;12.052;2024-03-25T07:56:06;95991.75;;;10.41;98.62
56944;BME280;42848;42.524;12.052;2024-03-25T07:58:32;95995.97;;;10.51;96.68
56944;BME280;42848;42.524;12.052;2024-03-25T08:00:58;95992.50;;;10.63;94.57
56944;BME280;42848;42.524;12.052;2024-03-25T08:03:24;95998.56;;;10.60;94.89
56944;BME280;42848;42.524;12.052;2024-03-25T08:05:50;96002.09;;;10.60;92.47
56944;BME280;42848;42.524;12.052;2024-03-25T08:08:16;96003.00;;;10.52;87.49
56944;BME280;42848;42.524;12.052;2024-03-25T08:10:42;96006.97;;;10.67;85.81
56944;BME280;42848;42.524;12.052;2024-03-25T08:13:07;96006.97;;;10.67;87.02
56944;BME280;42848;42.524;12.052;2024-03-25T08:15:33;96006.50;;;10.65;81.94
56944;BME280;42848;42.524;12.052;2024-03-25T08:17:59;96017.84;;;10.79;81.94
56944;BME280;42848;42.524;12.052;2024-03-25T08:20:24;96016.03;;;10.71;83.98
56944;BME280;42848;42.524;12.052;2024-03-25T08:22:50;96020.78;;;10.74;85.59
56944;BME280;42848;42.524;12.052;2024-03-25T08:25:15;96013.06;;;10.76;72.04
56944;BME280;42848;42.524;12.052;2024-03-25T08:27:41;96015.09;;;10.67;78.69
56944;BME280;42848;42.524;12.052;2024-03-25T08:30:08;96020.31;;;10.84;82.13
56944;BME280;42848;42.524;12.052;2024-03-25T08:32:35;96016.81;;;10.83;82.24
56944;BME280;42848;42.524;12.052;2024-03-25T08:35:00;96012.97;;;10.85;82.14
56944;BME280;42848;42.524;12.052;2024-03-25T08:37:26;96018.97;;;10.90;82.01
56944;BME280;42848;42.524;12.052;2024-03-25T08:39:52;96017.06;;;11.03;83.31
56944;BME280;42848;42.524;12.052;2024-03-25T08:42:17;96023.50;;;11.10;78.66
56944;BME280;42848;42.524;12.052;2024-03-25T08:44:43;96014.69;;;11.01;73.81
56944;BME280;42848;42.524;12.052;2024-03-25T08:47:09;96011.50;;;10.99;78.83
56944;BME280;42848;42.524;12.052;2024-03-25T08:49:34;96012.53;;;11.07;80.01
56944;BME280;42848;42.524;12.052;2024-03-25T08:52:00;96024.88;;;11.17;71.02
56944;BME280;42848;42.524;12.052;2024-03-25T08:54:25;96020.22;;;11.17;68.86
56944;BME280;42848;42.524;12.052;2024-03-25T08:56:51;96017.97;;;11.07;68.98
56944;BME280;42848;42.524;12.052;2024-03-25T08:59:16;96026.09;;;11.19;76.01
56944;BME280;42848;42.524;12.052;2024-03-25T09:01:42;96014.69;;;11.26;76.40
56944;BME280;42848;42.524;12.052;2024-03-25T09:04:08;96019.41;;;11.29;77.15
56944;BME280;42848;42.524;12.052;2024-03-25T09:06:34;96015.13;;;11.28;81.34
56944;BME280;42848;42.524;12.052;2024-03-25T09:09:02;96008.09;;;11.27;76.74
56944;BME280;42848;42.524;12.052;2024-03-25T09:11:46;96012.16;;;11.33;76.93
56944;BME280;42848;42.524;12.052;2024-03-25T09:14:11;96017.38;;;11.38;74.77
56944;BME280;42848;42.524;12.052;2024-03-25T09:16:37;96016.41;;;11.58;71.40
56944;BME280;42848;42.524;12.052;2024-03-25T09:19:03;96025.53;;;11.38;75.59
56944;BME280;42848;42.524;12.052;2024-03-25T09:21:28;96009.88;;;11.47;75.01
56944;BME280;42848;42.524;12.052;2024-03-25T09:23:55;96005.16;;;11.44;76.49
56944;BME280;42848;42.524;12.052;2024-03-25T09:26:23;96009.00;;;11.43;66.56
56944;BME280;42848;42.524;12.052;2024-03-25T09:28:49;96008.09;;;11.39;67.07
56944;BME280;42848;42.524;12.052;2024-03-25T09:31:15;96000.69;;;11.52;67.54
56944;BME280;42848;42.524;12.052;2024-03-25T09:33:40;95999.44;;;11.61;68.15
56944;BME280;42848;42.524;12.052;2024-03-25T09:36:06;96003.00;;;11.78;70.42
56944;BME280;42848;42.524;12.052;2024-03-25T09:38:32;96005.06;;;11.68;76.72
56944;BME280;42848;42.524;12.052;2024-03-25T09:40:58;95996.22;;;11.84;90.50
56944;BME280;42848;42.524;12.052;2024-03-25T09:43:27;96001.66;;;11.84;76.51
56944;BME280;42848;42.524;12.052;2024-03-25T09:45:57;96004.31;;;11.96;67.41
56944;BME280;42848;42.524;12.052;2024-03-25T09:48:26;95994.72;;;12.14;74.05
56944;BME280;42848;42.524;12.052;2024-03-25T09:50:52;96004.31;;;11.96;59.95
56944;BME280;42848;42.524;12.052;2024-03-25T09:53:19;96005.91;;;11.97;64.21
56944;BME280;42848;42.524;12.052;2024-03-25T09:55:48;95988.13;;;12.00;66.55
56944;BME280;42848;42.524;12.052;2024-03-25T09:58:15;95972.38;;;12.21;55.99
56944;BME280;42848;42.524;12.052;2024-03-25T10:00:43;95964.31;;;12.40;49.54
56944;BME280;42848;42.524;12.052;2024-03-25T10:03:08;95955.44;;;12.28;51.86
56944;BME280;42848;42.524;12.052;2024-03-25T10:05:34;95961.06;;;12.35;51.06
56944;BME280;42848;42.524;12.052;2024-03-25T10:08:00;95960.88;;;12.28;46.71
56944;BME280;42848;42.524;12.052;2024-03-25T10:10:26;95955.53;;;12.47;54.13
56944;BME280;42848;42.524;12.052;2024-03-25T10:12:55;95958.34;;;12.35;51.50
56944;BME280;42848;42.524;12.052;2024-03-25T10:15:20;95956.16;;;12.40;48.97
56944;BME280;42848;42.524;12.052;2024-03-25T10:17:49;95953.69;;;12.51;50.52
56944;BME280;42848;42.524;12.052;2024-03-25T10:20:17;95948.09;;;12.44;47.44
56944;BME280;42848;42.524;12.052;2024-03-25T10:22:45;95955.97;;;12.49;47.73
56944;BME280;42848;42.524;12.052;2024-03-25T10:25:28;95960.91;;;12.59;48.16
56944;BME280;42848;42.524;12.052;2024-03-25T10:27:58;95962.47;;;12.60;46.18
56944;BME280;42848;42.524;12.052;2024-03-25T10:30:24;95959.31;;;12.58;45.16
56944;BME280;42848;42.524;12.052;2024-03-25T10:33:06;95942.28;;;12.61;47.94
56944;BME280;42848;42.524;12.052;2024-03-25T10:35:33;95949.31;;;12.62;49.44
56944;BME280;42848;42.524;12.052;2024-03-25T10:38:04;95939.81;;;12.56;46.20
56944;BME280;42848;42.524;12.052;2024-03-25T10:40:32;95944.38;;;12.52;45.56
56944;BME280;42848;42.524;12.052;2024-03-25T10:43:02;95947.66;;;12.58;46.95
56944;BME280;42848;42.524;12.052;2024-03-25T10:45:30;95940.25;;;12.58;46.98
56944;BME280;42848;42.524;12.052;2024-03-25T10:48:03;95943.94;;;12.66;47.05
56944;BME280;42848;42.524;12.052;2024-03-25T10:50:30;95944.75;;;12.66;47.87
56944;BME280;42848;42.524;12.052;2024-03-25T10:53:00;95939.03;;;12.71;47.85
56944;BME280;42848;42.524;12.052;2024-03-25T10:55:28;95934.88;;;12.77;46.80
56944;BME280;42848;42.524;12.052;2024-03-25T10:57:55;95943.78;;;12.90;47.54
56944;BME280;42848;42.524;12.052;2024-03-25T11:00:22;95933.81;;;12.98;46.94
56944;BME280;42848;42.524;12.052;2024-03-25T11:02:48;95925.53;;;13.10;46.97
56944;BME280;42848;42.524;12.052;2024-03-25T11:05:16;95929.25;;;13.02;46.69
56944;BME280;42848;42.524;12.052;2024-03-25T11:07:43;95932.56;;;13.11;46.84
56944;BME280;42848;42.524;12.052;2024-03-25T11:10:09;95917.25;;;13.22;46.56
56944;BME280;42848;42.524;12.052;2024-03-25T11:12:36;95923.47;;;13.38;47.98
56944;BME280;42848;42.524;12.052;2024-03-25T11:15:03;95932.47;;;13.23;45.66
56944;BME280;42848;42.524;12.052;2024-03-25T11:17:30;95915.31;;;13.07;42.29
56944;BME280;42848;42.524;12.052;2024-03-25T11:20:12;95904.41;;;13.23;41.61
56944;BME280;42848;42.524;12.052;2024-03-25T11:22:52;95905.09;;;13.35;41.05
56944;BME280;42848;42.524;12.052;2024-03-25T11:25:20;95897.78;;;13.59;41.93
56944;BME280;42848;42.524;12.052;2024-03-25T11:27:47;95892.97;;;13.52;41.06
56944;BME280;42848;42.524;12.052;2024-03-25T11:30:14;95890.59;;;13.51;40.78
56944;BME280;42848;42.524;12.052;2024-03-25T11:32:52;95882.00;;;13.49;41.08
56944;BME280;42848;42.524;12.052;2024-03-25T11:35:19;95888.16;;;13.46;41.72
56944;BME280;42848;42.524;12.052;2024-03-25T11:37:45;95892.31;;;13.40;39.51
56944;BME280;42848;42.524;12.052;2024-03-25T11:40:12;95893.84;;;13.56;41.15
56944;BME280;42848;42.524;12.052;2024-03-25T11:42:43;95868.94;;;13.58;40.81
56944;BME280;42848;42.524;12.052;2024-03-25T11:45:21;95864.22;;;13.55;40.41
56944;BME280;42848;42.524;12.052;2024-03-25T11:47:49;95859.22;;;13.60;40.31
56944;BME280;42848;42.524;12.052;2024-03-25T11:50:16;95857.28;;;13.61;41.29
56944;BME280;42848;42.524;12.052;2024-03-25T11:52:42;95856.44;;;13.57;41.15
56944;BME280;42848;42.524;12.052;2024-03-25T11:55:09;95854.16;;;13.40;39.77
56944;BME280;42848;42.524;12.052;2024-03-25T11:57:36;95843.81;;;13.49;40.28
56944;BME280;42848;42.524;12.052;2024-03-25T12:00:02;95845.47;;;13.53;42.36
56944;BME280;42848;42.524;12.052;2024-03-25T12:02:32;95860.53;;;13.66;42.62
56944;BME280;42848;42.524;12.052;2024-03-25T12:04:58;95855.16;;;13.51;41.50
56944;BME280;42848;42.524;12.052;2024-03-25T12:07:24;95854.00;;;13.52;41.89
56944;BME280;42848;42.524;12.052;2024-03-25T12:09:49;95849.97;;;13.65;41.91
56944;BME280;42848;42.524;12.052;2024-03-25T12:12:33;95844.91;;;13.86;44.05
56944;BME280;42848;42.524;12.052;2024-03-25T12:15:05;95853.25;;;13.93;43.04
56944;BME280;42848;42.524;12.052;2024-03-25T12:17:33;95849.34;;;13.94;42.06
56944;BME280;42848;42.524;12.052;2024-03-25T12:20:07;95835.75;;;13.75;40.82
56944;BME280;42848;42.524;12.052;2024-03-25T12:22:35;95837.59;;;14.13;44.15
56944;BME280;42848;42.524;12.052;2024-03-25T12:25:03;95838.50;;;14.21;42.72
56944;BME280;42848;42.524;12.052;2024-03-25T12:27:37;95844.03;;;14.02;40.75
56944;BME280;42848;42.524;12.052;2024-03-25T12:30:07;95829.53;;;14.20;43.03
56944;BME280;42848;42.524;12.052;2024-03-25T12:32:44;95827.16;;;14.19;38.84
56944;BME280;42848;42.524;12.052;2024-03-25T12:35:14;95818.44;;;14.10;38.05
56944;BME280;42848;42.524;12.052;2024-03-25T12:37:42;95817.22;;;14.30;38.88
56944;BME280;42848;42.524;12.052;2024-03-25T12:40:10;95812.03;;;14.25;40.62
56944;BME280;42848;42.524;12.052;2024-03-25T12:42:36;95803.63;;;14.11;40.30
56944;BME280;42848;42.524;12.052;2024-03-25T12:45:04;95798.19;;;14.11;39.42
56944;BME280;42848;42.524;12.052;2024-03-25T12:47:30;95812.84;;;14.03;39.29
56944;BME280;42848;42.524;12.052;2024-03-25T12:49:59;95816.66;;;14.21;38.14